createdAt,value
2017-04-05T00:00:58.764Z,3.30
2017-04-05T00:02:02.903Z,3.57
2017-04-05T00:03:06.825Z,3.08
2017-04-05T00:04:10.366Z,3.40
2017-04-05T00:05:13.869Z,3.00
2017-04-05T00:06:18.037Z,3.15
2017-04-05T00:07:21.866Z,3.20
2017-04-05T00:08:25.871Z,2.72
2017-04-05T00:09:30.098Z,3.32
2017-04-05T00:10:34.274Z,4.07
2017-04-05T00:11:38.206Z,3.63
2017-04-05T00:12:42.159Z,3.35
2017-04-05T00:13:45.858Z,3.63
2017-04-05T00:14:49.758Z,3.55
2017-04-05T00:15:54.281Z,3.20
2017-04-05T00:17:02.576Z,3.83
2017-04-05T00:18:07.825Z,3.47
2017-04-05T00:19:11.701Z,4.02
2017-04-05T00:20:18.590Z,3.95
2017-04-05T00:21:22.301Z,3.72
2017-04-05T00:22:26.328Z,4.25
2017-04-05T00:23:30.269Z,4.12
2017-04-05T00:24:34.991Z,3.57
2017-04-05T00:25:38.880Z,3.88
2017-04-05T00:26:42.792Z,3.30
2017-04-05T00:27:46.505Z,3.48
2017-04-05T00:28:50.498Z,4.17
2017-04-05T00:29:54.394Z,3.38
2017-04-05T00:30:58.335Z,4.10
2017-04-05T00:32:02.183Z,3.33
2017-04-05T00:33:06.285Z,3.67
2017-04-05T00:34:11.184Z,3.97
2017-04-05T00:35:14.960Z,3.67
2017-04-05T00:36:19.228Z,4.35
2017-04-05T00:37:22.801Z,3.98
2017-04-05T00:38:27.803Z,4.68
2017-04-05T00:39:31.708Z,4.20
2017-04-05T00:40:35.310Z,3.80
2017-04-05T00:41:39.282Z,4.15
2017-04-05T00:42:42.876Z,4.57
2017-04-05T00:43:46.748Z,4.23
2017-04-05T00:44:51.329Z,4.40
2017-04-05T00:45:55.086Z,4.52
2017-04-05T00:46:58.770Z,3.63
2017-04-05T00:48:02.321Z,3.82
2017-04-05T00:49:06.157Z,3.63
2017-04-05T00:50:09.840Z,3.33
2017-04-05T00:51:13.514Z,3.35
2017-04-05T00:52:17.296Z,3.60
2017-04-05T00:53:21.218Z,3.07
2017-04-05T00:54:25.183Z,3.68
2017-04-05T00:55:29.679Z,2.90
2017-04-05T00:56:33.558Z,3.42
2017-04-05T00:57:37.321Z,4.33
2017-04-05T00:58:40.795Z,3.57
2017-04-05T00:59:44.574Z,3.32
2017-04-05T01:00:48.740Z,3.22
2017-04-05T01:01:52.580Z,3.43
2017-04-05T01:02:56.267Z,3.43
2017-04-05T01:04:00.254Z,3.65
2017-04-05T01:05:04.064Z,3.63
2017-04-05T01:06:07.836Z,4.15
2017-04-05T01:07:11.806Z,3.82
2017-04-05T01:08:15.974Z,3.70
2017-04-05T01:09:19.525Z,3.65
2017-04-05T01:10:23.056Z,3.70
2017-04-05T01:11:26.892Z,4.78
2017-04-05T01:12:30.449Z,4.55
2017-04-05T01:13:34.340Z,3.35
2017-04-05T01:14:38.146Z,4.02
2017-04-05T01:15:41.865Z,4.75
2017-04-05T01:16:45.682Z,3.82
2017-04-05T01:17:49.940Z,4.07
2017-04-05T01:18:54.748Z,3.80
2017-04-05T01:19:58.568Z,3.80
2017-04-05T01:21:02.712Z,3.40
2017-04-05T01:22:06.712Z,4.43
2017-04-05T01:23:10.676Z,3.87
2017-04-05T01:24:14.533Z,4.35
2017-04-05T01:25:17.810Z,4.50
2017-04-05T01:26:21.774Z,4.67
2017-04-05T01:27:25.495Z,4.32
2017-04-05T01:28:29.537Z,4.22
2017-04-05T01:29:33.501Z,4.40
2017-04-05T01:30:37.173Z,4.53
2017-04-05T01:31:41.062Z,4.23
2017-04-05T01:32:45.540Z,5.23
2017-04-05T01:33:49.886Z,4.85
2017-04-05T01:34:54.320Z,4.75
2017-04-05T01:35:58.166Z,5.17
2017-04-05T01:37:02.377Z,4.22
2017-04-05T01:38:07.232Z,4.22
2017-04-05T01:39:11.135Z,5.22
2017-04-05T01:40:15.502Z,4.58
2017-04-05T01:41:19.599Z,4.50
2017-04-05T01:42:23.161Z,4.10
2017-04-05T01:43:27.051Z,4.20
2017-04-05T01:44:31.783Z,3.87
2017-04-05T01:45:36.369Z,3.88
2017-04-05T01:46:40.050Z,3.50
2017-04-05T01:47:43.675Z,3.83
2017-04-05T01:48:47.929Z,3.82
2017-04-05T01:49:51.987Z,4.28
2017-04-05T01:50:55.693Z,4.17
2017-04-05T01:51:59.606Z,3.72
2017-04-05T01:53:03.457Z,3.97
2017-04-05T01:54:07.502Z,4.15
2017-04-05T01:55:11.386Z,3.82
2017-04-05T01:56:15.204Z,3.58
2017-04-05T01:57:18.691Z,4.32
2017-04-05T01:58:22.806Z,3.73
2017-04-05T01:59:26.433Z,3.38
2017-04-05T02:00:30.355Z,3.98
2017-04-05T02:01:34.139Z,3.40
2017-04-05T02:02:38.604Z,4.45
2017-04-05T02:03:42.598Z,3.90
2017-04-05T02:04:46.138Z,4.05
2017-04-05T02:05:49.802Z,3.88
2017-04-05T02:06:53.815Z,4.50
2017-04-05T02:07:57.632Z,4.07
2017-04-05T02:09:01.623Z,4.25
2017-04-05T02:10:05.602Z,4.03
2017-04-05T02:11:09.410Z,4.50
2017-04-05T02:12:13.436Z,4.85
2017-04-05T02:13:17.219Z,4.50
2017-04-05T02:14:21.176Z,3.87
2017-04-05T02:15:25.229Z,4.48
2017-04-05T02:16:29.210Z,4.62
2017-04-05T02:17:33.014Z,4.35
2017-04-05T02:18:37.751Z,3.90
2017-04-05T02:19:42.648Z,4.63
2017-04-05T02:20:46.937Z,4.10
2017-04-05T02:21:50.757Z,4.57
2017-04-05T02:22:54.198Z,4.13
2017-04-05T02:23:57.945Z,4.73
2017-04-05T02:25:01.742Z,4.25
2017-04-05T02:26:05.649Z,4.38
2017-04-05T02:27:09.565Z,4.33
2017-04-05T02:28:13.863Z,4.18
2017-04-05T02:29:17.220Z,4.22
2017-04-05T02:30:22.124Z,4.50
2017-04-05T02:31:26.044Z,3.47
2017-04-05T02:32:30.013Z,4.07
2017-04-05T02:33:33.775Z,4.40
2017-04-05T02:34:37.572Z,3.30
2017-04-05T02:35:41.550Z,3.68
2017-04-05T02:36:45.201Z,3.63
2017-04-05T02:37:49.066Z,3.33
2017-04-05T02:38:52.868Z,2.88
2017-04-05T02:39:56.991Z,3.55
2017-04-05T02:41:01.437Z,2.95
2017-04-05T02:42:05.219Z,3.08
2017-04-05T02:43:09.154Z,3.87
2017-04-05T02:44:12.758Z,3.20
2017-04-05T02:45:16.459Z,3.85
2017-04-05T02:46:20.368Z,3.38
2017-04-05T02:47:24.244Z,3.38
2017-04-05T02:48:28.077Z,4.08
2017-04-05T02:49:31.924Z,2.73
2017-04-05T02:50:35.617Z,3.35
2017-04-05T02:51:39.775Z,3.00
2017-04-05T02:52:44.076Z,2.47
2017-04-05T02:53:48.636Z,2.50
2017-04-05T02:54:52.358Z,2.97
2017-04-05T02:55:56.200Z,2.72
2017-04-05T02:57:00.303Z,2.90
2017-04-05T02:58:04.046Z,3.12
2017-04-05T02:59:07.556Z,2.87
2017-04-05T03:00:11.427Z,3.35
2017-04-05T03:01:15.079Z,3.02
2017-04-05T03:02:19.926Z,2.73
2017-04-05T03:03:23.657Z,2.52
2017-04-05T03:04:26.724Z,2.73
2017-04-05T03:05:30.401Z,2.80
2017-04-05T03:06:34.551Z,2.95
2017-04-05T03:07:38.786Z,3.10
2017-04-05T03:08:42.296Z,2.82
2017-04-05T03:09:45.904Z,3.07
2017-04-05T03:10:50.054Z,3.23
2017-04-05T03:11:53.918Z,4.52
2017-04-05T03:12:57.453Z,3.60
2017-04-05T03:14:02.248Z,4.05
2017-04-05T03:15:06.677Z,4.00
2017-04-05T03:16:10.794Z,3.73
2017-04-05T03:17:14.557Z,3.65
2017-04-05T03:18:18.255Z,3.72
2017-04-05T03:19:22.052Z,4.28
2017-04-05T03:20:27.666Z,4.03
2017-04-05T03:21:31.605Z,4.87
2017-04-05T03:22:35.531Z,4.47
2017-04-05T03:23:39.724Z,4.08
2017-04-05T03:24:43.196Z,5.12
2017-04-05T03:25:46.493Z,5.73
2017-04-05T03:26:50.051Z,6.10
2017-04-05T03:27:54.378Z,7.45
2017-04-05T03:28:58.740Z,7.58
2017-04-05T03:30:02.730Z,5.58
2017-04-05T03:31:06.645Z,7.22
2017-04-05T03:32:10.685Z,4.48
2017-04-05T03:33:15.582Z,4.85
2017-04-05T03:34:20.492Z,5.22
2017-04-05T03:35:24.308Z,6.27
2017-04-05T03:36:27.703Z,5.87
2017-04-05T03:37:31.735Z,5.35
2017-04-05T03:38:35.658Z,4.87
2017-04-05T03:39:39.565Z,3.33
2017-04-05T03:40:42.900Z,3.22
2017-04-05T03:41:47.668Z,4.02
2017-04-05T03:42:50.893Z,3.42
2017-04-05T03:43:54.603Z,3.10
2017-04-05T03:44:58.439Z,3.82
2017-04-05T03:46:02.111Z,3.52
2017-04-05T03:47:06.084Z,2.95
2017-04-05T03:48:10.237Z,3.48
2017-04-05T03:49:13.990Z,2.85
2017-04-05T03:50:18.086Z,3.38
2017-04-05T03:51:21.981Z,3.00
2017-04-05T03:52:25.780Z,3.07
2017-04-05T03:53:29.381Z,2.70
2017-04-05T03:54:32.970Z,2.97
2017-04-05T03:55:36.523Z,2.82
2017-04-05T03:56:40.863Z,3.65
2017-04-05T03:57:44.474Z,3.12
2017-04-05T03:58:48.307Z,3.17
2017-04-05T03:59:53.089Z,2.70
2017-04-05T04:00:57.060Z,2.90
2017-04-05T04:02:00.898Z,3.03
2017-04-05T04:03:05.075Z,2.78
2017-04-05T04:04:08.984Z,3.30
2017-04-05T04:05:12.712Z,3.02
2017-04-05T04:06:16.669Z,3.02
2017-04-05T04:07:20.408Z,3.20
2017-04-05T04:08:24.513Z,2.87
2017-04-05T04:09:28.340Z,2.85
2017-04-05T04:10:32.186Z,3.48
2017-04-05T04:11:36.158Z,3.40
2017-04-05T04:12:40.168Z,2.90
2017-04-05T04:13:43.698Z,3.32
2017-04-05T04:14:47.655Z,3.02
2017-04-05T04:15:51.461Z,2.98
2017-04-05T04:16:55.223Z,2.97
2017-04-05T04:17:59.237Z,3.17
2017-04-05T04:19:02.930Z,3.57
2017-04-05T04:20:06.605Z,3.37
2017-04-05T04:21:12.481Z,3.28
2017-04-05T04:22:16.420Z,2.75
2017-04-05T04:23:19.482Z,3.48
2017-04-05T04:24:23.922Z,2.70
2017-04-05T04:25:27.725Z,2.95
2017-04-05T04:26:31.471Z,2.72
2017-04-05T04:27:35.394Z,2.90
2017-04-05T04:28:39.162Z,2.45
2017-04-05T04:29:43.275Z,2.95
2017-04-05T04:30:47.337Z,2.75
2017-04-05T04:31:51.851Z,2.57
2017-04-05T04:32:55.763Z,3.22
2017-04-05T04:33:59.501Z,2.88
2017-04-05T04:35:03.666Z,3.52
2017-04-05T04:36:08.336Z,2.98
2017-04-05T04:37:12.038Z,2.82
2017-04-05T04:38:15.919Z,2.83
2017-04-05T04:39:19.467Z,3.20
2017-04-05T04:40:23.043Z,3.02
2017-04-05T04:41:26.761Z,3.02
2017-04-05T04:42:30.493Z,3.70
2017-04-05T04:43:34.702Z,2.85
2017-04-05T04:44:38.479Z,2.95
2017-04-05T04:45:42.445Z,2.75
2017-04-05T04:46:46.216Z,3.03
2017-04-05T04:47:50.207Z,3.10
2017-04-05T04:48:54.414Z,3.07
2017-04-05T04:49:58.538Z,3.07
2017-04-05T04:51:02.628Z,2.72
2017-04-05T04:52:06.377Z,3.20
2017-04-05T04:53:10.176Z,2.83
2017-04-05T04:54:14.002Z,2.85
2017-04-05T04:55:17.729Z,2.75
2017-04-05T04:56:21.850Z,2.83
2017-04-05T04:57:25.466Z,3.02
2017-04-05T04:58:29.104Z,3.08
2017-04-05T04:59:33.469Z,3.33
2017-04-05T05:00:38.040Z,3.15
2017-04-05T05:01:41.668Z,3.10
2017-04-05T05:02:45.432Z,3.07
2017-04-05T05:03:50.207Z,2.63
2017-04-05T05:04:54.040Z,2.57
2017-04-05T05:05:57.615Z,3.10
2017-04-05T05:07:02.123Z,3.02
2017-04-05T05:08:06.144Z,2.57
2017-04-05T05:09:10.237Z,3.45
2017-04-05T05:10:14.064Z,3.22
2017-04-05T05:11:17.828Z,3.00
2017-04-05T05:12:21.495Z,2.68
2017-04-05T05:13:25.096Z,3.08
2017-04-05T05:14:28.901Z,3.38
2017-04-05T05:15:32.511Z,3.37
2017-04-05T05:16:36.643Z,2.67
2017-04-05T05:17:40.630Z,2.63
2017-04-05T05:18:44.289Z,2.80
2017-04-05T05:19:48.718Z,3.48
2017-04-05T05:20:52.922Z,3.08
2017-04-05T05:21:57.760Z,3.32
2017-04-05T05:23:01.779Z,3.43
2017-04-05T05:24:05.704Z,2.93
2017-04-05T05:25:10.379Z,3.63
2017-04-05T05:26:14.469Z,3.05
2017-04-05T05:27:18.037Z,3.28
2017-04-05T05:28:21.999Z,2.50
2017-04-05T05:29:25.682Z,2.90
2017-04-05T05:30:29.562Z,3.55
2017-04-05T05:31:33.495Z,3.42
2017-04-05T05:32:37.129Z,3.10
2017-04-05T05:33:41.857Z,3.00
2017-04-05T05:34:45.768Z,2.77
2017-04-05T05:35:49.723Z,3.00
2017-04-05T05:36:54.704Z,2.48
2017-04-05T05:37:58.555Z,3.82
2017-04-05T05:39:02.732Z,3.43
2017-04-05T05:40:06.343Z,2.97
2017-04-05T05:41:10.094Z,3.25
2017-04-05T05:42:14.011Z,3.50
2017-04-05T05:43:17.517Z,2.80
2017-04-05T05:44:21.410Z,2.98
2017-04-05T05:45:25.203Z,2.92
2017-04-05T05:46:29.268Z,2.58
2017-04-05T05:47:32.925Z,2.63
2017-04-05T05:48:36.323Z,2.93
2017-04-05T05:49:40.035Z,3.55
2017-04-05T05:50:43.883Z,2.82
2017-04-05T05:51:47.472Z,2.73
2017-04-05T05:52:51.375Z,2.92
2017-04-05T05:53:55.307Z,3.07
2017-04-05T05:54:59.209Z,2.72
2017-04-05T05:56:03.120Z,2.77
2017-04-05T05:57:06.743Z,2.63
2017-04-05T05:58:11.443Z,2.52
2017-04-05T05:59:15.362Z,2.65
2017-04-05T06:00:19.394Z,2.93
2017-04-05T06:01:24.320Z,2.67
2017-04-05T06:02:28.588Z,2.77
2017-04-05T06:03:32.583Z,2.40
2017-04-05T06:04:36.448Z,2.75
2017-04-05T06:05:40.319Z,2.55
2017-04-05T06:06:44.121Z,2.68
2017-04-05T06:07:48.428Z,2.90
2017-04-05T06:08:52.363Z,2.90
2017-04-05T06:09:57.195Z,2.87
2017-04-05T06:11:01.162Z,2.52
2017-04-05T06:12:05.550Z,2.62
2017-04-05T06:13:09.424Z,2.63
2017-04-05T06:14:13.517Z,2.62
2017-04-05T06:15:17.260Z,2.40
2017-04-05T06:16:20.854Z,2.62
2017-04-05T06:17:24.534Z,2.88
2017-04-05T06:18:28.097Z,2.75
2017-04-05T06:19:32.061Z,2.77
2017-04-05T06:20:35.694Z,2.58
2017-04-05T06:21:39.495Z,2.55
2017-04-05T06:22:44.757Z,2.90
2017-04-05T06:23:48.250Z,2.28
2017-04-05T06:24:51.890Z,2.45
2017-04-05T06:25:55.652Z,2.80
2017-04-05T06:26:59.751Z,2.32
2017-04-05T06:28:03.647Z,2.42
2017-04-05T06:29:07.470Z,3.67
2017-04-05T06:30:10.889Z,2.42
2017-04-05T06:31:14.596Z,2.35
2017-04-05T06:32:18.612Z,3.00
2017-04-05T06:33:22.374Z,2.45
2017-04-05T06:34:26.860Z,2.57
2017-04-05T06:35:29.872Z,2.15
2017-04-05T06:36:33.472Z,2.27
2017-04-05T06:37:36.905Z,2.33
2017-04-05T06:38:40.858Z,2.50
2017-04-05T06:39:44.671Z,2.55
2017-04-05T06:40:48.634Z,2.25
2017-04-05T06:41:52.676Z,2.35
2017-04-05T06:42:56.540Z,2.47
2017-04-05T06:44:00.242Z,2.48
2017-04-05T06:45:04.151Z,2.38
2017-04-05T06:46:08.624Z,2.07
2017-04-05T06:47:12.366Z,2.33
2017-04-05T06:48:16.438Z,1.95
2017-04-05T06:49:20.292Z,2.40
2017-04-05T06:50:24.035Z,2.67
2017-04-05T06:51:27.795Z,2.52
2017-04-05T06:52:32.461Z,2.75
2017-04-05T06:53:36.276Z,2.40
2017-04-05T06:54:39.979Z,1.95
2017-04-05T06:55:43.706Z,2.33
2017-04-05T06:56:47.396Z,2.65
2017-04-05T06:57:51.261Z,1.93
2017-04-05T06:58:55.172Z,2.78
2017-04-05T06:59:58.752Z,2.62
2017-04-05T07:01:02.699Z,2.30
2017-04-05T07:02:06.849Z,2.65
2017-04-05T07:03:10.376Z,2.37
2017-04-05T07:04:13.627Z,2.93
2017-04-05T07:05:17.162Z,2.43
2017-04-05T07:06:21.659Z,2.58
2017-04-05T07:07:25.524Z,2.97
2017-04-05T07:08:29.305Z,2.77
2017-04-05T07:09:33.315Z,2.38
2017-04-05T07:10:36.757Z,3.02
2017-04-05T07:11:40.983Z,2.50
2017-04-05T07:12:44.765Z,2.57
2017-04-05T07:13:48.401Z,2.30
2017-04-05T07:14:52.112Z,2.72
2017-04-05T07:15:55.969Z,2.43
2017-04-05T07:16:59.988Z,2.20
2017-04-05T07:18:03.978Z,2.23
2017-04-05T07:19:07.618Z,2.17
2017-04-05T07:20:11.359Z,2.15
2017-04-05T07:21:15.180Z,2.82
2017-04-05T07:22:19.668Z,2.77
2017-04-05T07:23:24.624Z,2.08
2017-04-05T07:24:28.309Z,2.60
2017-04-05T07:25:31.811Z,2.85
2017-04-05T07:26:35.391Z,2.72
2017-04-05T07:27:39.276Z,2.40
2017-04-05T07:28:43.361Z,2.63
2017-04-05T07:29:47.136Z,2.67
2017-04-05T07:30:51.816Z,2.88
2017-04-05T07:31:55.441Z,3.25
2017-04-05T07:32:59.302Z,2.03
2017-04-05T07:34:03.131Z,2.30
2017-04-05T07:35:06.785Z,2.60
2017-04-05T07:36:10.654Z,2.42
2017-04-05T07:37:14.415Z,2.52
2017-04-05T07:38:18.046Z,2.58
2017-04-05T07:39:21.660Z,2.95
2017-04-05T07:40:25.527Z,2.27
2017-04-05T07:41:30.639Z,2.42
2017-04-05T07:42:34.719Z,2.88
2017-04-05T07:43:38.422Z,2.15
2017-04-05T07:44:42.229Z,3.15
2017-04-05T07:45:46.874Z,4.35
2017-04-05T07:46:50.541Z,4.63
2017-04-05T07:47:54.537Z,7.02
2017-04-05T07:48:58.256Z,5.93
2017-04-05T07:50:01.748Z,6.03
2017-04-05T07:51:05.622Z,6.50
2017-04-05T07:52:09.226Z,6.40
2017-04-05T07:53:13.127Z,4.97
2017-04-05T07:54:17.026Z,3.27
2017-04-05T07:55:20.993Z,3.37
2017-04-05T07:56:25.501Z,3.03
2017-04-05T07:57:29.902Z,4.10
2017-04-05T07:58:33.652Z,3.13
2017-04-05T07:59:37.446Z,2.70
2017-04-05T08:00:41.406Z,2.67
2017-04-05T08:01:45.145Z,2.80
2017-04-05T08:02:49.036Z,3.12
2017-04-05T08:03:52.865Z,3.18
2017-04-05T08:04:56.557Z,2.57
2017-04-05T08:06:00.142Z,2.52
2017-04-05T08:07:04.438Z,2.98
2017-04-05T08:08:08.603Z,2.50
2017-04-05T08:09:12.186Z,2.33
2017-04-05T08:10:15.834Z,2.45
2017-04-05T08:11:19.617Z,2.72
2017-04-05T08:12:23.302Z,2.60
2017-04-05T08:13:26.911Z,3.18
2017-04-05T08:14:30.521Z,2.67
2017-04-05T08:15:34.285Z,3.22
2017-04-05T08:16:38.354Z,2.80
2017-04-05T08:17:42.011Z,3.18
2017-04-05T08:18:46.107Z,2.60
2017-04-05T08:19:50.804Z,3.30
2017-04-05T08:20:54.687Z,2.78
2017-04-05T08:21:58.610Z,2.65
2017-04-05T08:23:02.129Z,3.55
2017-04-05T08:24:07.240Z,2.92
2017-04-05T08:25:11.128Z,2.82
2017-04-05T08:26:14.601Z,2.58
2017-04-05T08:27:18.497Z,3.12
2017-04-05T08:28:22.466Z,2.68
2017-04-05T08:29:26.440Z,2.75
2017-04-05T08:30:31.151Z,3.22
2017-04-05T08:31:34.597Z,2.92
2017-04-05T08:32:38.674Z,2.63
2017-04-05T08:33:42.533Z,2.98
2017-04-05T08:34:46.146Z,3.03
2017-04-05T08:35:50.196Z,2.62
2017-04-05T08:36:54.175Z,2.63
2017-04-05T08:37:57.976Z,2.20
2017-04-05T08:39:01.699Z,2.32
2017-04-05T08:40:05.508Z,2.72
2017-04-05T08:41:09.256Z,2.97
2017-04-05T08:42:13.215Z,2.70
2017-04-05T08:43:17.020Z,3.48
2017-04-05T08:44:20.871Z,2.75
2017-04-05T08:45:25.480Z,2.80
2017-04-05T08:46:29.128Z,2.78
2017-04-05T08:47:32.816Z,2.72
2017-04-05T08:48:36.672Z,3.10
2017-04-05T08:49:40.772Z,2.70
2017-04-05T08:50:45.392Z,3.28
2017-04-05T08:51:49.066Z,2.75
2017-04-05T08:52:52.843Z,2.47
2017-04-05T08:53:56.697Z,2.57
2017-04-05T08:55:01.078Z,2.87
2017-04-05T08:56:04.692Z,2.63
2017-04-05T08:57:08.660Z,2.32
2017-04-05T08:58:12.381Z,2.52
2017-04-05T08:59:16.202Z,2.32
2017-04-05T09:00:19.923Z,2.48
2017-04-05T09:01:24.256Z,3.00
2017-04-05T09:02:28.145Z,3.08
2017-04-05T09:03:31.889Z,2.83
2017-04-05T09:04:35.518Z,2.80
2017-04-05T09:05:39.378Z,3.07
2017-04-05T09:06:43.281Z,2.83
2017-04-05T09:07:47.458Z,2.60
2017-04-05T09:08:51.557Z,2.42
2017-04-05T09:09:55.329Z,2.40
2017-04-05T09:10:58.674Z,2.55
2017-04-05T09:12:02.293Z,3.02
2017-04-05T09:13:06.601Z,2.95
2017-04-05T09:14:10.506Z,2.65
2017-04-05T09:15:14.524Z,2.63
2017-04-05T09:16:18.539Z,2.40
2017-04-05T09:17:22.286Z,2.23
2017-04-05T09:18:26.219Z,2.42
2017-04-05T09:19:30.068Z,2.50
2017-04-05T09:20:33.776Z,2.67
2017-04-05T09:21:37.321Z,2.57
2017-04-05T09:22:41.159Z,3.17
2017-04-05T09:23:45.172Z,2.37
2017-04-05T09:24:50.001Z,2.53
2017-04-05T09:25:54.815Z,2.57
2017-04-05T09:26:58.518Z,2.20
2017-04-05T09:28:02.297Z,2.40
2017-04-05T09:29:05.652Z,2.35
2017-04-05T09:30:08.940Z,2.42
2017-04-05T09:31:12.725Z,2.35
2017-04-05T09:32:16.710Z,2.48
2017-04-05T09:33:20.174Z,2.82
2017-04-05T09:34:24.746Z,2.43
2017-04-05T09:35:28.543Z,3.00
2017-04-05T09:36:32.577Z,2.47
2017-04-05T09:37:36.390Z,2.52
2017-04-05T09:38:40.661Z,2.33
2017-04-05T09:39:45.261Z,2.53
2017-04-05T09:40:49.755Z,2.77
2017-04-05T09:41:53.445Z,2.68
2017-04-05T09:42:57.462Z,2.88
2017-04-05T09:44:01.127Z,2.42
2017-04-05T09:45:04.668Z,2.02
2017-04-05T09:46:09.038Z,2.60
2017-04-05T09:47:12.785Z,2.47
2017-04-05T09:48:16.331Z,2.57
2017-04-05T09:49:20.264Z,2.40
2017-04-05T09:50:24.176Z,2.48
2017-04-05T09:51:27.943Z,2.93
2017-04-05T09:52:31.937Z,2.83
2017-04-05T09:53:35.534Z,2.40
2017-04-05T09:54:39.363Z,2.52
2017-04-05T09:55:42.792Z,3.20
2017-04-05T09:56:46.560Z,2.40
2017-04-05T09:57:50.340Z,2.58
2017-04-05T09:58:54.168Z,2.37
2017-04-05T09:59:57.589Z,2.32
2017-04-05T10:01:01.603Z,2.33
2017-04-05T10:02:05.356Z,3.02
2017-04-05T10:03:09.496Z,2.70
2017-04-05T10:04:14.018Z,2.78
2017-04-05T10:05:18.531Z,2.38
2017-04-05T10:06:22.344Z,2.63
2017-04-05T10:07:25.899Z,2.77
2017-04-05T10:08:29.736Z,2.32
2017-04-05T10:09:33.619Z,2.25
2017-04-05T10:10:37.223Z,2.47
2017-04-05T10:11:40.906Z,2.75
2017-04-05T10:12:45.423Z,2.32
2017-04-05T10:13:50.310Z,2.65
2017-04-05T10:14:54.663Z,2.73
2017-04-05T10:15:58.471Z,2.55
2017-04-05T10:17:02.527Z,2.20
2017-04-05T10:18:06.131Z,2.48
2017-04-05T10:19:10.040Z,2.98
2017-04-05T10:20:14.767Z,3.17
2017-04-05T10:21:18.847Z,2.70
2017-04-05T10:22:22.592Z,2.70
2017-04-05T10:23:26.430Z,3.08
2017-04-05T10:24:30.141Z,2.90
2017-04-05T10:25:35.882Z,2.52
2017-04-05T10:26:39.628Z,2.73
2017-04-05T10:27:43.661Z,3.00
2017-04-05T10:28:47.911Z,2.75
2017-04-05T10:29:51.962Z,2.90
2017-04-05T10:30:55.705Z,2.70
2017-04-05T10:31:59.464Z,2.35
2017-04-05T10:33:03.276Z,2.50
2017-04-05T10:34:06.436Z,2.52
2017-04-05T10:35:10.100Z,2.52
2017-04-05T10:36:13.739Z,2.57
2017-04-05T10:37:17.659Z,2.58
2017-04-05T10:38:21.458Z,2.88
2017-04-05T10:39:25.031Z,2.48
2017-04-05T10:40:28.790Z,2.45
2017-04-05T10:41:32.625Z,2.70
2017-04-05T10:42:36.422Z,2.45
2017-04-05T10:43:40.154Z,2.70
2017-04-05T10:44:43.814Z,2.47
2017-04-05T10:45:47.752Z,2.75
2017-04-05T10:46:52.637Z,2.25
2017-04-05T10:47:56.393Z,2.65
2017-04-05T10:49:00.211Z,2.48
2017-04-05T10:50:03.889Z,2.93
2017-04-05T10:51:07.899Z,2.47
2017-04-05T10:52:11.644Z,3.20
2017-04-05T10:53:15.466Z,2.73
2017-04-05T10:54:20.007Z,2.38
2017-04-05T10:55:23.822Z,2.92
2017-04-05T10:56:30.584Z,2.37
2017-04-05T10:57:34.351Z,2.67
2017-04-05T10:58:38.281Z,2.95
2017-04-05T10:59:42.052Z,2.25
2017-04-05T11:00:45.895Z,2.50
2017-04-05T11:01:49.614Z,2.42
2017-04-05T11:02:54.405Z,2.35
2017-04-05T11:03:58.269Z,2.68
2017-04-05T11:05:02.090Z,2.90
2017-04-05T11:06:05.820Z,3.12
2017-04-05T11:07:09.859Z,2.10
2017-04-05T11:08:13.691Z,3.38
2017-04-05T11:09:17.448Z,2.82
2017-04-05T11:10:21.129Z,2.75
2017-04-05T11:11:25.102Z,2.78
2017-04-05T11:12:28.738Z,2.63
2017-04-05T11:13:32.681Z,3.13
2017-04-05T11:14:36.274Z,2.52
2017-04-05T11:15:40.071Z,2.85
2017-04-05T11:16:43.661Z,2.53
2017-04-05T11:17:47.304Z,2.55
2017-04-05T11:18:51.286Z,2.50
2017-04-05T11:19:55.095Z,2.80
2017-04-05T11:20:58.887Z,2.87
2017-04-05T11:22:02.629Z,2.62
2017-04-05T11:23:06.496Z,2.73
2017-04-05T11:24:10.575Z,3.02
2017-04-05T11:25:14.213Z,2.63
2017-04-05T11:26:18.437Z,2.85
2017-04-05T11:27:22.002Z,2.42
2017-04-05T11:28:26.182Z,3.05
2017-04-05T11:29:30.093Z,2.45
2017-04-05T11:30:33.681Z,2.73
2017-04-05T11:31:37.260Z,2.52
2017-04-05T11:32:41.933Z,2.80
2017-04-05T11:33:45.645Z,3.30
2017-04-05T11:34:49.205Z,2.45
2017-04-05T11:35:52.911Z,2.95
2017-04-05T11:36:56.827Z,2.83
2017-04-05T11:38:00.732Z,2.67
2017-04-05T11:39:04.658Z,2.67
2017-04-05T11:40:08.529Z,2.60
2017-04-05T11:41:12.099Z,2.45
2017-04-05T11:42:15.778Z,2.30
2017-04-05T11:43:18.868Z,2.30
2017-04-05T11:44:22.249Z,2.63
2017-04-05T11:45:26.272Z,2.87
2017-04-05T11:46:29.989Z,2.83
2017-04-05T11:47:33.385Z,2.52
2017-04-05T11:48:37.599Z,3.18
2017-04-05T11:49:41.535Z,2.47
2017-04-05T11:50:45.386Z,2.43
2017-04-05T11:51:49.240Z,2.88
2017-04-05T11:52:53.070Z,2.40
2017-04-05T11:53:57.644Z,2.60
2017-04-05T11:55:01.490Z,2.47
2017-04-05T11:56:06.021Z,2.58
2017-04-05T11:57:15.742Z,2.38
2017-04-05T11:58:21.609Z,2.67
2017-04-05T11:59:25.591Z,2.70
2017-04-05T12:00:29.499Z,2.58
2017-04-05T12:01:33.245Z,2.97
2017-04-05T12:02:36.813Z,2.82
2017-04-05T12:03:40.659Z,2.85
2017-04-05T12:09:44.543Z,2.63
2017-04-05T12:10:48.220Z,3.30
2017-04-05T12:11:51.768Z,2.80
2017-04-05T12:12:55.757Z,2.58
2017-04-05T12:13:59.295Z,3.28
2017-04-05T12:15:06.559Z,3.12
2017-04-05T12:16:11.405Z,2.77
2017-04-05T12:18:20.573Z,2.87
2017-04-05T12:19:23.770Z,3.43
2017-04-05T12:20:28.442Z,3.62
2017-04-05T12:21:32.135Z,3.37
2017-04-05T12:22:35.780Z,2.38
2017-04-05T12:23:39.341Z,3.27
2017-04-05T12:24:43.798Z,2.83
2017-04-05T12:25:47.579Z,2.88
2017-04-05T12:26:51.763Z,2.95
2017-04-05T12:27:55.320Z,2.77
2017-04-05T12:28:59.668Z,2.78
2017-04-05T12:30:03.695Z,2.82
2017-04-05T12:31:07.604Z,2.57
2017-04-05T12:32:11.602Z,2.78
2017-04-05T12:33:15.685Z,2.82
2017-04-05T12:34:18.906Z,3.05
2017-04-05T12:35:22.517Z,2.50
2017-04-05T12:36:27.004Z,2.63
2017-04-05T12:37:30.660Z,2.88
2017-04-05T12:38:34.769Z,2.53
2017-04-05T12:39:38.472Z,3.27
2017-04-05T12:40:42.338Z,2.35
2017-04-05T12:41:46.819Z,2.92
2017-04-05T12:44:54.994Z,2.57
2017-04-05T12:45:58.816Z,3.15
2017-04-05T12:47:03.335Z,2.75
2017-04-05T12:48:06.981Z,2.65
2017-04-05T12:49:10.670Z,2.57
2017-04-05T12:50:14.784Z,3.08
2017-04-05T12:51:17.976Z,2.57
2017-04-05T12:52:21.953Z,2.87
2017-04-05T12:53:25.789Z,3.62
2017-04-05T12:54:29.742Z,2.43
2017-04-05T12:55:33.534Z,3.13
2017-04-05T12:56:37.251Z,2.23
2017-04-05T12:57:40.836Z,2.60
2017-04-05T12:58:44.887Z,2.65
2017-04-05T12:59:48.966Z,2.35
2017-04-05T13:00:52.787Z,2.60
2017-04-05T13:01:56.383Z,2.43
2017-04-05T13:03:00.688Z,2.87
2017-04-05T13:04:04.347Z,3.05
2017-04-05T13:05:08.585Z,2.77
2017-04-05T13:06:13.102Z,2.55
2017-04-05T13:07:17.061Z,2.93
2017-04-05T13:08:20.639Z,2.28
2017-04-05T13:09:24.580Z,2.67
2017-04-05T13:10:28.191Z,2.52
2017-04-05T13:11:32.112Z,2.32
2017-04-05T13:12:36.015Z,2.87
2017-04-05T13:13:40.171Z,2.30
2017-04-05T13:14:43.784Z,2.58
2017-04-05T13:15:47.820Z,2.27
2017-04-05T13:16:51.550Z,2.62
2017-04-05T13:17:55.377Z,2.90
2017-04-05T13:18:59.226Z,2.80
2017-04-05T13:20:03.407Z,2.47
2017-04-05T13:21:07.102Z,2.18
2017-04-05T13:22:10.703Z,2.87
2017-04-05T13:23:14.476Z,2.68
2017-04-05T13:24:18.268Z,2.45
2017-04-05T13:25:22.366Z,2.45
2017-04-05T13:26:26.790Z,2.57
2017-04-05T13:27:31.155Z,2.55
2017-04-05T13:28:34.891Z,2.33
2017-04-05T13:29:39.521Z,2.97
2017-04-05T13:30:43.593Z,2.45
2017-04-05T13:31:48.415Z,2.32
2017-04-05T13:32:52.389Z,3.03
2017-04-05T13:33:56.832Z,2.45
2017-04-05T13:35:00.500Z,2.82
2017-04-05T13:36:04.200Z,2.20
2017-04-05T13:37:07.666Z,2.37
2017-04-05T13:38:11.397Z,2.58
2017-04-05T13:39:15.295Z,2.33
2017-04-05T13:40:18.800Z,2.57
2017-04-05T13:41:23.463Z,2.25
2017-04-05T13:42:27.160Z,2.22
2017-04-05T13:43:30.801Z,2.50
2017-04-05T13:44:35.518Z,2.53
2017-04-05T13:45:39.431Z,2.75
2017-04-05T13:46:44.367Z,2.32
2017-04-05T13:47:47.931Z,3.20
2017-04-05T13:48:51.429Z,3.27
2017-04-05T13:49:55.110Z,2.80
2017-04-05T13:50:59.128Z,2.38
2017-04-05T13:52:03.034Z,2.82
2017-04-05T13:53:07.008Z,2.63
2017-04-05T13:54:11.049Z,2.90
2017-04-05T13:55:14.824Z,2.70
2017-04-05T13:56:18.661Z,2.32
2017-04-05T13:57:22.359Z,2.85
2017-04-05T13:58:26.289Z,2.42
2017-04-05T13:59:30.214Z,3.00
2017-04-05T14:00:34.202Z,2.38
2017-04-05T14:01:38.064Z,2.43
2017-04-05T14:02:42.682Z,2.53
2017-04-05T14:03:46.638Z,2.42
2017-04-05T14:04:50.448Z,2.45
2017-04-05T14:05:54.141Z,2.23
2017-04-05T14:06:57.882Z,2.58
2017-04-05T14:08:01.660Z,2.98
2017-04-05T14:09:05.994Z,2.55
2017-04-05T14:10:10.001Z,3.10
2017-04-05T14:11:13.673Z,2.42
2017-04-05T14:12:17.556Z,2.53
2017-04-05T14:13:21.339Z,2.40
2017-04-05T14:14:25.211Z,2.75
2017-04-05T14:15:28.726Z,2.83
2017-04-05T14:16:32.363Z,2.42
2017-04-05T14:17:36.229Z,2.80
2017-04-05T14:18:40.095Z,2.77
2017-04-05T14:19:43.803Z,2.62